Time;durP1;ratioP1;P1;durP2;ratioP2;P2;SDS_P1;SDS_P2;PMS_P1;PMS_P2;Temp;Humidity;BMP_temperature;BMP_pressure;BME280_temperature;BME280_humidity;BME280_pressure;Samples;Min_cycle;Max_cycle;Signal;HPM_P1;HPM_P2
2022/08/18 00:02:20;;;;;;;11.43;5.78;;;;;;;28.24;36.54;98219.75;4440633;32;20101;-84
2022/08/18 00:04:46;;;;;;;11.93;6.03;;;;;;;28.23;36.82;98217.25;4440687;32;20348;-84
2022/08/18 00:07:15;;;;;;;13.45;5.97;;;;;;;28.21;37.52;98203.09;4413826;32;20108;-84
2022/08/18 00:09:41;;;;;;;12.20;6.22;;;;;;;28.22;37.70;98200.19;4440891;32;20450;-84
2022/08/18 00:12:15;;;;;;;10.73;5.72;;;;;;;28.23;38.03;98198.31;4440744;32;20432;-84
2022/08/18 00:14:41;;;;;;;12.37;6.47;;;;;;;28.29;38.18;98185.78;4426732;32;20473;-84
2022/08/18 00:17:07;;;;;;;10.75;5.90;;;;;;;28.26;38.42;98192.47;4426611;32;20226;-84
2022/08/18 00:19:32;;;;;;;11.57;6.18;;;;;;;28.22;38.66;98191.19;4440558;32;20425;-84
2022/08/18 00:21:58;;;;;;;12.23;6.53;;;;;;;28.22;38.78;98188.50;4426452;32;20135;-84
2022/08/18 00:24:24;;;;;;;14.82;7.10;;;;;;;28.19;39.12;98189.75;4440530;32;20341;-83
2022/08/18 00:26:50;;;;;;;13.57;7.00;;;;;;;28.17;39.49;98186.44;4440517;32;20085;-83
2022/08/18 00:29:15;;;;;;;15.13;7.15;;;;;;;28.14;39.87;98184.12;4440494;32;20107;-83
2022/08/18 00:31:41;;;;;;;15.68;7.30;;;;;;;28.05;40.86;98185.44;4440585;32;20090;-82
2022/08/18 00:34:07;;;;;;;13.82;7.18;;;;;;;28.07;41.00;98187.91;4440332;32;20490;-82
2022/08/18 00:36:33;;;;;;;13.00;7.22;;;;;;;28.07;40.93;98177.94;4440507;32;20096;-82
2022/08/18 00:38:59;;;;;;;18.23;7.70;;;;;;;28.06;40.95;98186.25;4440430;32;20108;-82
2022/08/18 00:41:26;;;;;;;12.93;7.45;;;;;;;28.10;40.98;98196.44;4440453;32;20145;-82
2022/08/18 00:43:53;;;;;;;12.88;7.10;;;;;;;28.04;41.20;98192.69;4426594;32;20105;-82
2022/08/18 00:46:24;;;;;;;14.20;8.10;;;;;;;28.03;41.47;98185.63;4440379;32;20097;-82
2022/08/18 00:48:51;;;;;;;13.93;7.43;;;;;;;28.05;41.92;98190.84;4426393;32;20081;-82
2022/08/18 00:51:32;;;;;;;13.40;8.02;;;;;;;27.95;42.23;98202.09;4440424;32;20127;-83
2022/08/18 00:54:03;;;;;;;13.30;7.50;;;;;;;27.99;42.14;98194.37;4426366;32;20102;-83
2022/08/18 00:56:34;;;;;;;13.40;8.13;;;;;;;27.89;42.62;98194.78;4440260;32;20129;-83
2022/08/18 00:59:06;;;;;;;15.38;8.20;;;;;;;27.92;42.47;98202.50;4426381;32;20081;-83
2022/08/18 01:01:32;;;;;;;13.52;7.90;;;;;;;27.82;43.03;98207.50;4426260;32;20098;-83
2022/08/18 01:04:06;;;;;;;16.30;8.60;;;;;;;27.80;43.14;98209.56;4426304;32;20119;-82
2022/08/18 01:06:38;;;;;;;14.85;7.85;;;;;;;27.77;43.26;98204.56;4425567;32;20112;-83
2022/08/18 01:09:04;;;;;;;14.05;8.32;;;;;;;27.82;43.04;98212.91;4439831;32;20103;-83
2022/08/18 01:11:30;;;;;;;15.20;8.13;;;;;;;27.89;42.78;98207.50;4440246;32;20163;-83
2022/08/18 01:13:56;;;;;;;12.82;7.95;;;;;;;27.76;43.50;98203.75;4440015;32;20134;-82
2022/08/18 01:21:57;;;;;;;14.18;8.05;;;;;;;27.83;43.97;98207.28;4440196;32;20123;-83
2022/08/18 01:27:17;;;;;;;15.52;8.63;;;;;;;27.80;43.89;98215.00;4428224;32;20108;-82
2022/08/18 01:29:44;;;;;;;14.57;8.70;;;;;;;27.70;44.15;98209.16;4426254;32;20463;-82
2022/08/18 01:32:11;;;;;;;14.50;7.87;;;;;;;27.70;44.13;98207.28;4439780;32;20096;-82
2022/08/18 01:34:37;;;;;;;14.98;8.52;;;;;;;27.59;44.52;98206.03;4425885;32;20105;-82
2022/08/18 01:37:04;;;;;;;17.37;8.20;;;;;;;27.66;44.23;98214.12;4439824;32;20120;-82
2022/08/18 01:39:30;;;;;;;13.55;8.32;;;;;;;27.68;44.13;98209.37;4426103;32;20085;-82
2022/08/18 01:41:55;;;;;;;16.58;8.77;;;;;;;27.63;44.35;98211.84;4439809;32;20485;-82
2022/08/18 01:44:21;;;;;;;15.27;8.43;;;;;;;27.59;44.37;98216.84;4439695;32;20086;-82
2022/08/18 01:46:47;;;;;;;13.85;8.35;;;;;;;27.50;44.60;98228.06;4425795;32;20084;-83
2022/08/18 01:49:13;;;;;;;15.52;8.93;;;;;;;27.61;44.24;98224.75;4439704;32;20369;-84
2022/08/18 01:51:41;;;;;;;16.45;8.32;;;;;;;27.61;44.28;98222.06;4439805;32;20097;-83
2022/08/18 01:54:11;;;;;;;17.83;8.95;;;;;;;27.62;44.22;98215.59;4439554;32;20089;-87
2022/08/18 01:56:37;;;;;;;16.80;8.65;;;;;;;27.40;44.83;98225.78;4425624;32;20151;-86
2022/08/18 01:59:05;;;;;;;17.42;8.82;;;;;;;27.29;45.15;98220.97;4439441;32;20081;-86
2022/08/18 02:01:30;;;;;;;15.75;8.48;;;;;;;27.31;45.03;98217.00;4439617;32;20089;-86
2022/08/18 02:03:58;;;;;;;14.00;8.40;;;;;;;27.41;44.70;98220.16;4439678;32;20246;-86
2022/08/18 02:06:24;;;;;;;16.00;8.45;;;;;;;27.39;44.77;98224.94;4412981;32;20090;-86
2022/08/18 02:08:50;;;;;;;14.13;8.35;;;;;;;27.42;44.72;98218.28;4439635;32;20092;-86
2022/08/18 02:11:15;;;;;;;14.63;8.27;;;;;;;27.41;44.91;98214.75;4439767;32;20117;-86
2022/08/18 02:13:41;;;;;;;13.45;8.05;;;;;;;27.48;44.83;98214.75;4439515;32;20170;-87
2022/08/18 02:16:06;;;;;;;16.30;8.10;;;;;;;27.51;44.76;98216.22;4425482;32;20093;-86
2022/08/18 02:18:35;;;;;;;16.65;9.02;;;;;;;27.52;44.74;98218.72;4440122;32;20081;-86
2022/08/18 02:21:17;;;;;;;14.87;8.43;;;;;;;27.30;46.03;98212.66;4427429;32;20153;-86
2022/08/18 02:23:43;;;;;;;15.13;8.88;;;;;;;27.50;45.23;98218.09;4441388;32;20444;-85
2022/08/18 02:26:12;;;;;;;14.23;7.87;;;;;;;27.35;45.74;98212.03;4427355;32;20089;-85
2022/08/18 02:28:38;;;;;;;15.02;7.85;;;;;;;27.38;45.61;98214.34;4427427;32;20112;-85
2022/08/18 02:31:10;;;;;;;16.12;8.40;;;;;;;27.44;45.38;98224.31;4441221;32;20105;-83
2022/08/18 02:33:36;;;;;;;15.85;8.30;;;;;;;27.47;45.32;98221.22;4441590;32;20470;-83
2022/08/18 02:36:01;;;;;;;16.92;9.10;;;;;;;27.38;45.59;98220.56;4441530;32;20073;-86
2022/08/18 02:38:28;;;;;;;15.18;8.80;;;;;;;27.26;46.16;98222.22;4441455;32;20341;-86
2022/08/18 02:40:58;;;;;;;14.40;8.90;;;;;;;27.26;46.33;98231.16;4427364;32;20109;-87
2022/08/18 02:43:24;;;;;;;15.38;8.48;;;;;;;27.17;46.63;98234.22;4427222;32;20109;-86
2022/08/18 02:45:49;;;;;;;15.60;8.27;;;;;;;27.25;46.34;98228.66;4441524;32;20085;-87
2022/08/18 02:48:15;;;;;;;15.15;8.40;;;;;;;27.26;46.28;98223.03;4441367;32;20090;-86
2022/08/18 02:50:47;;;;;;;15.35;8.80;;;;;;;27.25;46.37;98226.81;4427356;32;20151;-87
2022/08/18 02:53:23;;;;;;;17.40;9.57;;;;;;;27.28;46.34;98230.13;4427274;32;20108;-85
2022/08/18 02:55:49;;;;;;;15.23;8.30;;;;;;;27.27;46.44;98240.09;4441397;32;20084;-85
2022/08/18 02:58:14;;;;;;;15.07;8.60;;;;;;;27.28;46.44;98238.25;4441304;32;20111;-86
2022/08/18 03:00:41;;;;;;;15.57;9.40;;;;;;;27.28;46.58;98232.84;4427100;32;20110;-86
2022/08/18 03:03:07;;;;;;;14.82;9.00;;;;;;;27.02;47.58;98228.97;4441338;32;20158;-85
2022/08/18 03:05:33;;;;;;;15.85;9.10;;;;;;;27.04;47.50;98235.88;4441047;32;20089;-85
2022/08/18 03:07:59;;;;;;;18.17;9.20;;;;;;;27.02;47.69;98245.19;4441069;32;20157;-84
2022/08/18 03:10:24;;;;;;;14.87;8.48;;;;;;;27.05;47.50;98237.50;4426895;32;20128;-84
2022/08/18 03:12:50;;;;;;;16.50;9.30;;;;;;;27.12;47.15;98236.69;4426842;32;20124;-84
2022/08/18 03:15:15;;;;;;;18.25;9.52;;;;;;;27.01;47.58;98236.25;4426927;32;20084;-84
2022/08/18 03:17:41;;;;;;;16.12;9.15;;;;;;;27.03;47.57;98234.19;4441184;32;20084;-85
2022/08/18 03:20:06;;;;;;;20.40;9.23;;;;;;;27.06;47.59;98241.03;4440824;32;20125;-84
2022/08/18 03:22:32;;;;;;;16.55;9.13;;;;;;;27.04;47.64;98251.22;4440909;32;20129;-85
2022/08/18 03:24:58;;;;;;;15.73;9.55;;;;;;;27.01;47.71;98249.78;4426908;32;20153;-85
2022/08/18 03:27:24;;;;;;;15.68;9.43;;;;;;;27.14;47.38;98256.25;4440858;32;20086;-85
2022/08/18 03:29:50;;;;;;;18.15;9.50;;;;;;;27.10;47.68;98260.41;4426174;32;20110;-86
2022/08/18 03:32:16;;;;;;;17.52;9.63;;;;;;;26.93;48.21;98260.78;4440770;32;20089;-86
2022/08/18 03:34:42;;;;;;;16.67;10.20;;;;;;;27.01;47.86;98263.28;4426938;32;20170;-84
2022/08/18 03:37:08;;;;;;;16.10;9.50;;;;;;;26.88;48.61;98272.16;4440813;32;20123;-84
2022/08/18 03:39:33;;;;;;;17.15;9.88;;;;;;;26.71;49.16;98270.84;4426841;32;20106;-84
2022/08/18 03:41:59;;;;;;;18.17;10.13;;;;;;;26.93;48.38;98265.34;4440700;32;20135;-84
2022/08/18 03:44:27;;;;;;;15.13;9.18;;;;;;;27.02;48.28;98259.56;4426837;32;20322;-84
2022/08/18 03:46:52;;;;;;;16.33;9.43;;;;;;;27.03;48.24;98260.38;4440696;32;20181;-86
2022/08/18 03:49:19;;;;;;;16.20;9.95;;;;;;;26.96;48.56;98257.66;4440772;32;20097;-84
2022/08/18 03:51:45;;;;;;;16.95;9.98;;;;;;;26.74;49.26;98261.53;4426989;32;20506;-84
2022/08/18 03:54:12;;;;;;;17.42;9.70;;;;;;;26.76;49.18;98245.94;4440793;32;20101;-84
2022/08/18 03:56:39;;;;;;;18.87;10.25;;;;;;;26.84;49.01;98259.28;4440658;32;20145;-85
2022/08/18 03:59:09;;;;;;;15.73;9.90;;;;;;;26.85;48.83;98261.78;4426760;32;20132;-84
2022/08/18 04:01:40;;;;;;;16.95;9.93;;;;;;;26.88;48.87;98258.66;4440643;32;20101;-85
2022/08/18 04:04:10;;;;;;;18.48;9.98;;;;;;;26.95;48.65;98255.16;4426799;32;20107;-85
2022/08/18 04:06:40;;;;;;;16.40;9.93;;;;;;;26.61;49.62;98256.88;4440791;32;20077;-84
2022/08/18 04:09:08;;;;;;;17.33;9.85;;;;;;;26.72;49.27;98258.19;4440620;32;20495;-86
2022/08/18 04:11:35;;;;;;;16.15;9.45;;;;;;;26.81;49.13;98259.66;4440677;32;20729;-86
2022/08/18 04:14:01;;;;;;;13.93;9.13;;;;;;;26.96;48.66;98257.66;4426593;32;20148;-86
2022/08/18 04:16:28;;;;;;;16.77;9.35;;;;;;;27.06;48.37;98258.13;4440504;32;20139;-86
2022/08/18 04:18:56;;;;;;;17.23;9.82;;;;;;;26.99;48.54;98253.72;4440497;32;20105;-85
2022/08/18 04:21:23;;;;;;;21.00;10.18;;;;;;;27.17;47.99;98253.97;4440611;32;20154;-85
2022/08/18 04:23:48;;;;;;;17.30;9.75;;;;;;;26.93;48.59;98257.25;4440535;32;20089;-86
2022/08/18 04:26:14;;;;;;;16.27;9.38;;;;;;;27.24;47.74;98260.28;4440391;32;20135;-85
2022/08/18 04:28:41;;;;;;;17.25;9.45;;;;;;;27.38;47.47;98255.72;4440586;32;20162;-84
2022/08/18 04:31:11;;;;;;;17.00;9.82;;;;;;;27.56;46.96;98255.13;4440569;32;20137;-85
2022/08/18 04:33:37;;;;;;;15.65;9.13;;;;;;;27.33;47.63;98266.31;4426305;32;20451;-84
2022/08/18 04:36:10;;;;;;;15.25;9.15;;;;;;;27.36;47.31;98274.03;4440383;32;20135;-84
2022/08/18 04:38:36;;;;;;;16.37;9.23;;;;;;;27.74;46.52;98259.97;4440580;32;20094;-83
2022/08/18 04:41:02;;;;;;;17.27;9.32;;;;;;;27.81;46.24;98262.66;4440564;32;20089;-85
2022/08/18 04:43:29;;;;;;;14.38;8.98;;;;;;;27.96;45.94;98260.59;4440616;32;20179;-84
2022/08/18 04:46:00;;;;;;;16.67;9.50;;;;;;;27.91;45.91;98252.28;4439443;32;20089;-84
2022/08/18 04:48:36;;;;;;;16.27;9.27;;;;;;;27.86;46.28;98262.87;4427204;32;20404;-84
2022/08/18 04:51:06;;;;;;;15.82;9.07;;;;;;;27.82;46.36;98259.75;4440739;32;20119;-84
2022/08/18 04:53:45;;;;;;;15.50;8.70;;;;;;;28.01;45.87;98263.53;4426650;32;20514;-84
2022/08/18 04:56:20;;;;;;;15.27;9.15;;;;;;;28.18;45.57;98263.94;4440625;32;20144;-85
2022/08/18 04:58:50;;;;;;;15.63;9.43;;;;;;;28.43;44.97;98264.13;4440207;32;20120;-85
2022/08/18 05:01:18;;;;;;;16.65;9.35;;;;;;;28.71;44.16;98259.47;4440452;32;20094;-85
2022/08/18 05:03:43;;;;;;;15.65;10.02;;;;;;;28.81;43.86;98263.37;4440537;32;20107;-85
2022/08/18 05:06:09;;;;;;;18.00;9.32;;;;;;;28.80;43.73;98263.59;4446078;32;20138;-85
2022/08/18 05:08:34;;;;;;;16.50;9.63;;;;;;;28.82;43.65;98258.81;4455928;32;20089;-86
2022/08/18 05:11:00;;;;;;;17.20;9.00;;;;;;;28.95;43.42;98260.63;4441738;32;20123;-83
2022/08/18 05:13:25;;;;;;;16.50;9.63;;;;;;;29.02;43.38;98250.59;4455737;32;20134;-83
2022/08/18 05:15:53;;;;;;;14.30;8.70;;;;;;;29.17;42.81;98255.78;4455708;32;20065;-83
2022/08/18 05:18:23;;;;;;;;;;;;;;;29.24;42.76;98255.72;4456006;32;20145;-84
2022/08/18 05:20:51;;;;;;;15.98;9.13;;;;;;;29.41;42.63;98251.44;4441748;32;19996;-84
2022/08/18 05:23:19;;;;;;;17.20;9.68;;;;;;;29.45;42.58;98252.69;4441711;32;20096;-85
2022/08/18 05:25:44;;;;;;;;;;;;;;;29.23;43.09;98256.78;4456108;32;20125;-86
2022/08/18 05:28:09;;;;;;;15.43;8.40;;;;;;;29.68;42.07;98257.53;4455789;32;19972;-84
2022/08/18 05:30:35;;;;;;;15.18;8.75;;;;;;;29.67;42.14;98257.75;4455720;32;20116;-84
2022/08/18 05:33:02;;;;;;;13.43;8.63;;;;;;;29.81;41.62;98255.81;4441606;32;20134;-81
2022/08/18 05:35:43;;;;;;;15.60;8.77;;;;;;;29.93;41.26;98264.91;4454854;32;20140;-80
2022/08/18 05:38:18;;;;;;;15.88;8.40;;;;;;;29.81;41.15;98269.41;4440078;32;20452;-80
2022/08/18 05:40:44;;;;;;;16.83;8.50;;;;;;;29.94;41.18;98252.97;4453133;32;20365;-83
2022/08/18 05:43:11;;;;;;;15.95;9.15;;;;;;;29.95;41.32;98260.91;4454783;32;20097;-84
2022/08/18 05:45:38;;;;;;;15.95;8.55;;;;;;;30.17;40.84;98264.06;4454596;32;20089;-83
2022/08/18 05:48:04;;;;;;;18.33;9.00;;;;;;;30.32;40.15;98252.88;4440449;32;20128;-84
2022/08/18 05:50:31;;;;;;;17.02;8.82;;;;;;;30.37;39.95;98263.91;4455228;32;20089;-83
2022/08/18 05:53:06;;;;;;;16.83;8.30;;;;;;;30.51;40.04;98261.88;4441154;32;20113;-85
2022/08/18 05:58:36;;;;;;;15.45;9.38;;;;;;;30.41;39.50;98264.28;4455268;32;20612;-87
2022/08/18 06:01:07;;;;;;;14.52;8.32;;;;;;;30.57;39.76;98260.97;4434935;32;20162;-87
2022/08/18 06:03:43;;;;;;;16.45;9.35;;;;;;;30.74;39.24;98261.19;4454022;32;20093;-82
2022/08/18 06:06:19;;;;;;;14.73;8.70;;;;;;;30.34;40.14;98268.94;4453724;32;20094;-85
2022/08/18 06:09:16;;;;;;;16.83;9.35;;;;;;;30.44;39.90;98274.69;4439107;32;20147;-85
2022/08/18 06:11:43;;;;;;;13.82;7.93;;;;;;;30.15;40.11;98278.91;4438245;32;20120;-83
2022/08/18 06:14:08;;;;;;;16.58;8.75;;;;;;;30.65;39.57;98273.44;4453937;32;20094;-89
2022/08/18 06:16:55;;;;;;;14.68;8.93;;;;;;;30.89;38.90;98276.31;4440402;32;20414;-87
2022/08/18 06:19:43;;;;;;;16.12;9.40;;;;;;;31.11;37.89;98273.97;4450959;32;20132;-83
2022/08/18 06:22:14;;;;;;;;;;;;;;;30.97;38.52;98278.75;4452583;32;20121;-81
2022/08/18 06:24:45;;;;;;;15.35;8.52;;;;;;;30.94;38.74;98281.91;4454413;32;19977;-84
2022/08/18 06:27:38;;;;;;;15.70;8.65;;;;;;;31.06;38.48;98281.97;4440392;32;20077;-82
2022/08/18 06:30:14;;;;;;;13.50;8.13;;;;;;;31.10;38.73;98275.88;4439922;32;20102;-82
2022/08/18 06:32:53;;;;;;;14.57;8.30;;;;;;;31.26;38.33;98274.41;4433995;32;20171;-82
2022/08/18 06:35:28;;;;;;;15.40;8.35;;;;;;;31.34;37.91;98276.78;4425788;32;20109;-82
2022/08/18 06:40:47;;;;;;;16.33;8.70;;;;;;;30.53;39.71;98286.13;4439336;32;20121;-81
2022/08/18 06:43:15;;;;;;;14.75;8.82;;;;;;;31.05;38.46;98283.06;4412752;32;20097;-82
2022/08/18 06:45:43;;;;;;;15.63;8.30;;;;;;;31.19;38.36;98289.97;4424254;32;20089;-83
2022/08/18 06:48:28;;;;;;;16.77;8.63;;;;;;;30.98;38.74;98283.12;4425184;32;20142;-84
2022/08/18 06:50:58;;;;;;;16.12;9.10;;;;;;;31.23;38.18;98272.13;4439122;32;20501;-82
2022/08/18 06:53:49;;;;;;;16.02;8.70;;;;;;;31.39;38.20;98278.84;4437831;32;20109;-81
2022/08/18 06:56:38;;;;;;;15.38;8.55;;;;;;;30.57;39.92;98281.88;4453568;32;20119;-89
2022/08/18 06:59:35;;;;;;;16.67;9.00;;;;;;;31.12;38.98;98279.19;4438956;32;20119;-87
2022/08/18 07:02:18;;;;;;;15.90;9.50;;;;;;;31.51;38.06;98268.03;4424964;32;20119;-91
2022/08/18 07:05:04;;;;;;;15.75;8.50;;;;;;;31.74;38.01;98264.53;4438930;32;20093;-85
2022/08/18 07:07:38;;;;;;;16.45;8.40;;;;;;;31.75;38.28;98258.81;4441808;32;20585;-82
2022/08/18 07:10:30;;;;;;;16.10;8.88;;;;;;;31.63;37.80;98262.59;4442711;32;20088;-89
2022/08/18 07:13:16;;;;;;;15.90;9.48;;;;;;;31.65;37.95;98257.75;4442260;32;20157;-86
2022/08/18 07:15:44;;;;;;;15.75;9.45;;;;;;;31.87;37.34;98256.16;4438545;32;20126;-82
2022/08/18 07:18:10;;;;;;;16.37;8.93;;;;;;;31.41;38.29;98262.25;4453104;32;20109;-82
2022/08/18 07:20:48;;;;;;;14.77;9.02;;;;;;;31.49;38.53;98261.97;4453140;32;20123;-81
2022/08/18 07:23:27;;;;;;;15.35;8.70;;;;;;;31.82;37.73;98253.28;4438307;32;20120;-81
2022/08/18 07:26:07;;;;;;;15.38;8.38;;;;;;;32.00;37.42;98251.53;4438849;32;20101;-81
2022/08/18 07:28:37;;;;;;;16.50;8.75;;;;;;;32.12;37.14;98241.50;4416682;32;20084;-83
2022/08/18 07:31:30;;;;;;;15.52;8.60;;;;;;;31.96;37.53;98256.63;4426955;32;20512;-83
2022/08/18 07:34:03;;;;;;;14.87;8.02;;;;;;;32.26;36.57;98256.56;4417978;32;20110;-83
2022/08/18 07:36:34;;;;;;;12.37;7.85;;;;;;;32.03;37.39;98257.38;4456331;32;20243;-83
2022/08/18 07:39:30;;;;;;;14.95;8.00;;;;;;;32.30;36.53;98260.47;4442264;32;20086;-83
2022/08/18 07:42:03;;;;;;;15.75;8.35;;;;;;;32.51;36.04;98252.75;4429229;32;20097;-84
2022/08/18 07:44:51;;;;;;;14.00;8.02;;;;;;;32.41;36.01;98247.87;4442602;32;20154;-83
2022/08/18 07:47:20;;;;;;;21.15;8.50;;;;;;;32.65;35.37;98246.00;4442596;32;20170;-83
2022/08/18 07:49:47;;;;;;;14.43;8.20;;;;;;;32.70;35.13;98250.72;4442435;32;20088;-84
2022/08/18 07:52:26;;;;;;;18.17;8.03;;;;;;;32.74;35.30;98256.53;4456383;32;20123;-84
2022/08/18 07:55:08;;;;;;;15.43;8.13;;;;;;;32.87;34.69;98250.81;4442339;32;20455;-84
2022/08/18 07:57:59;;;;;;;15.60;8.05;;;;;;;32.90;34.51;98258.50;4456383;32;20126;-85
2022/08/18 08:00:33;;;;;;;14.95;7.97;;;;;;;32.90;34.37;98262.06;4442049;32;20085;-84
2022/08/18 08:03:11;;;;;;;14.02;7.32;;;;;;;32.69;34.85;98266.25;4456155;32;20427;-85
2022/08/18 08:06:34;;;;;;;13.30;7.65;;;;;;;32.51;35.41;98274.56;4456088;32;20122;-85
2022/08/18 08:09:37;;;;;;;12.82;7.15;;;;;;;32.91;33.95;98273.78;4377859;32;20132;-84
2022/08/18 08:12:36;;;;;;;17.73;8.40;;;;;;;32.99;33.65;98276.13;4377502;32;20087;-84
2022/08/18 08:15:30;;;;;;;;;;;;;;;32.95;34.21;98287.78;4333301;33;20451;-84
2022/08/18 08:18:23;;;;;;;14.98;7.45;;;;;;;32.82;34.78;98287.00;4326217;33;20047;-85
2022/08/18 08:20:57;;;;;;;14.63;7.00;;;;;;;33.05;33.51;98288.00;4332863;33;20478;-85
2022/08/18 08:23:58;;;;;;;11.48;6.55;;;;;;;33.22;33.08;98291.66;4333060;33;20083;-84
2022/08/18 08:26:30;;;;;;;12.15;7.18;;;;;;;33.27;32.74;98299.13;4303576;33;20152;-84
2022/08/18 08:29:11;;;;;;;15.40;7.35;;;;;;;33.33;32.28;98298.16;4303826;33;20108;-84
2022/08/18 08:31:52;;;;;;;14.27;7.57;;;;;;;33.45;32.17;98295.38;4303841;33;20158;-84
2022/08/18 08:34:34;;;;;;;13.38;7.25;;;;;;;33.38;32.68;98291.94;4303840;33;20118;-84
2022/08/18 08:37:07;;;;;;;15.85;6.72;;;;;;;33.47;32.50;98280.38;4303585;33;20085;-85
2022/08/18 08:39:56;;;;;;;14.23;7.80;;;;;;;33.31;32.55;98292.09;4327108;33;20128;-85
2022/08/18 08:42:48;;;;;;;12.75;7.55;;;;;;;33.36;32.62;98288.63;4347702;33;20150;-84
2022/08/18 08:45:24;;;;;;;13.32;7.37;;;;;;;33.50;31.94;98284.53;4335229;33;20166;-85
2022/08/18 08:48:08;;;;;;;14.68;7.65;;;;;;;33.49;32.11;98274.69;4335361;33;20079;-84
2022/08/18 08:50:39;;;;;;;14.40;7.35;;;;;;;33.48;32.35;98275.78;4335322;33;20209;-84
2022/08/18 08:53:09;;;;;;;15.18;7.35;;;;;;;33.38;32.39;98278.28;4406172;32;20223;-84
2022/08/18 08:55:40;;;;;;;14.40;7.37;;;;;;;33.50;31.56;98273.63;4407453;32;20154;-84
2022/08/18 08:58:12;;;;;;;12.40;7.55;;;;;;;33.59;31.83;98271.31;4394876;32;20460;-84
2022/08/18 09:00:38;;;;;;;13.18;8.10;;;;;;;33.60;32.27;98270.25;4407294;32;20117;-84
2022/08/18 09:03:31;;;;;;;14.55;7.93;;;;;;;33.58;32.22;98270.50;4424081;32;20485;-84
2022/08/18 09:06:19;;;;;;;13.65;7.47;;;;;;;33.42;31.98;98274.84;4455824;32;20452;-85
2022/08/18 09:09:08;;;;;;;12.52;7.53;;;;;;;33.57;31.86;98262.53;4441692;32;20073;-84
2022/08/18 09:11:55;;;;;;;14.07;7.57;;;;;;;32.93;33.69;98271.66;4455709;32;20089;-85
2022/08/18 09:14:23;;;;;;;14.27;8.30;;;;;;;33.46;32.21;98265.09;4455656;32;20089;-85
2022/08/18 09:17:11;;;;;;;15.25;8.05;;;;;;;33.29;32.72;98261.50;4455587;32;20149;-84
2022/08/18 09:20:15;;;;;;;13.52;7.37;;;;;;;33.52;31.91;98246.06;4455565;32;20073;-85
2022/08/18 09:23:02;;;;;;;15.30;7.62;;;;;;;33.49;32.07;98247.37;4441998;32;20093;-84
2022/08/18 09:25:33;;;;;;;12.35;6.55;;;;;;;33.56;31.68;98253.53;4441911;32;20508;-85
2022/08/18 09:28:12;;;;;;;12.82;7.93;;;;;;;33.49;31.79;98252.84;4440189;32;20085;-85
2022/08/18 09:30:46;;;;;;;14.27;8.05;;;;;;;33.55;31.71;98246.38;4428479;32;20467;-84
2022/08/18 09:33:32;;;;;;;13.35;7.43;;;;;;;33.30;31.95;98252.22;4428500;32;20105;-85
2022/08/18 09:36:27;;;;;;;16.08;7.70;;;;;;;33.15;32.32;98243.72;4441487;32;20156;-84
2022/08/18 09:41:51;;;;;;;14.68;7.57;;;;;;;33.34;31.58;98247.09;4443395;32;20473;-85
2022/08/18 09:44:47;;;;;;;14.15;7.03;;;;;;;33.50;31.00;98240.84;4441561;32;20093;-84
2022/08/18 09:47:24;;;;;;;12.15;7.12;;;;;;;33.55;30.93;98243.66;4455216;32;20089;-84
2022/08/18 09:49:52;;;;;;;13.00;6.87;;;;;;;33.56;30.08;98231.66;4455334;32;20100;-84
2022/08/18 09:52:38;;;;;;;14.65;6.50;;;;;;;33.60;30.16;98227.38;4455090;32;20077;-84
2022/08/18 09:55:26;;;;;;;13.27;6.30;;;;;;;33.61;30.50;98220.00;4441613;32;20749;-84
2022/08/18 09:58:21;;;;;;;;;;;;;;;33.77;30.30;98208.28;4455561;32;20196;-84
2022/08/18 10:01:24;;;;;;;11.60;6.30;;;;;;;33.42;29.67;98209.31;4441168;32;20338;-84
2022/08/18 10:04:24;;;;;;;12.80;6.80;;;;;;;33.58;30.06;98206.84;4455358;32;20084;-84
2022/08/18 10:06:51;;;;;;;11.02;6.07;;;;;;;33.64;29.59;98192.22;4441205;32;20154;-84
2022/08/18 10:09:49;;;;;;;13.18;5.62;;;;;;;33.72;29.04;98191.81;4441120;32;20105;-84
2022/08/18 10:12:30;;;;;;;12.40;6.07;;;;;;;33.69;28.98;98195.06;4440820;32;20101;-85
2022/08/18 10:15:17;;;;;;;12.90;6.10;;;;;;;33.75;29.21;98188.59;4454887;32;20089;-84
2022/08/18 10:17:53;;;;;;;14.60;6.67;;;;;;;33.75;29.26;98193.25;4440816;32;20477;-84
2022/08/18 10:20:49;;;;;;;12.85;6.07;;;;;;;33.79;28.86;98186.19;4454906;32;20178;-84
2022/08/18 10:23:41;;;;;;;12.15;6.03;;;;;;;33.82;28.91;98196.59;4442601;32;20080;-84
2022/08/18 10:26:29;;;;;;;15.32;6.18;;;;;;;33.60;29.26;98186.41;4440689;32;20541;-84
2022/08/18 10:29:00;;;;;;;16.37;5.60;;;;;;;33.78;28.99;98195.44;4454607;32;20101;-85
2022/08/18 10:31:28;;;;;;;11.27;5.30;;;;;;;33.82;28.81;98194.72;4454669;32;20124;-85
2022/08/18 10:34:06;;;;;;;11.88;5.85;;;;;;;33.91;28.05;98200.56;4440413;32;20077;-84
2022/08/18 10:36:53;;;;;;;13.02;5.78;;;;;;;33.80;27.96;98194.13;4440589;32;20134;-84
2022/08/18 10:39:46;;;;;;;11.93;6.05;;;;;;;33.90;28.05;98193.44;4455140;32;20096;-84
2022/08/18 10:42:16;;;;;;;11.80;6.00;;;;;;;34.08;28.22;98190.47;4439667;32;20439;-85
2022/08/18 10:44:44;;;;;;;13.15;5.97;;;;;;;33.99;28.38;98196.59;4456888;32;20112;-84
2022/08/18 10:47:21;;;;;;;11.40;5.30;;;;;;;34.13;27.65;98186.13;4442609;32;20111;-84
2022/08/18 10:49:49;;;;;;;11.10;5.30;;;;;;;34.15;27.49;98186.72;4429697;32;20206;-84
2022/08/18 10:52:23;;;;;;;13.75;5.90;;;;;;;34.03;27.16;98173.97;4456613;32;20582;-84
2022/08/18 10:54:48;;;;;;;12.48;5.57;;;;;;;34.03;27.07;98179.44;4456695;32;20077;-85
2022/08/18 10:57:30;;;;;;;12.05;5.03;;;;;;;34.07;27.28;98177.88;4456580;32;20134;-84
2022/08/18 11:00:12;;;;;;;10.90;5.53;;;;;;;33.99;27.93;98174.75;4439903;32;20125;-85
2022/08/18 11:02:41;;;;;;;10.98;5.75;;;;;;;34.20;27.64;98171.25;4441048;32;20115;-84
2022/08/18 11:05:09;;;;;;;11.75;5.18;;;;;;;34.38;27.11;98172.03;4441077;32;20198;-84
2022/08/18 11:07:37;;;;;;;12.15;5.22;;;;;;;34.26;26.88;98177.63;4441087;32;20108;-85
2022/08/18 11:10:21;;;;;;;10.90;5.20;;;;;;;34.32;26.82;98179.31;4427169;32;20477;-85
2022/08/18 11:13:16;;;;;;;12.02;5.47;;;;;;;34.26;26.80;98177.63;4439896;32;20108;-84
2022/08/18 11:16:05;;;;;;;12.07;5.30;;;;;;;34.33;26.70;98166.50;4441126;32;20407;-85
2022/08/18 11:18:32;;;;;;;11.15;4.97;;;;;;;34.26;27.00;98170.22;4434788;32;20089;-84
2022/08/18 11:21:35;;;;;;;12.05;5.32;;;;;;;33.95;27.73;98170.84;4441035;32;20104;-85
2022/08/18 11:24:26;;;;;;;12.43;5.15;;;;;;;34.43;26.45;98166.63;4440885;32;20162;-84
2022/08/18 11:26:57;;;;;;;11.63;5.03;;;;;;;34.54;26.06;98165.69;4439898;32;20107;-84
2022/08/18 11:29:25;;;;;;;12.37;5.78;;;;;;;34.57;26.33;98150.66;4440939;32;20144;-84
2022/08/18 11:31:55;;;;;;;11.60;4.97;;;;;;;34.51;26.42;98152.50;4440875;32;20105;-85
2022/08/18 11:34:28;;;;;;;10.20;4.68;;;;;;;34.67;26.36;98145.31;4440814;32;20093;-85
2022/08/18 11:37:06;;;;;;;10.48;4.87;;;;;;;34.76;25.52;98146.53;4439786;32;20175;-85
2022/08/18 11:39:32;;;;;;;10.55;5.07;;;;;;;34.77;25.60;98141.87;4439994;32;20078;-84
2022/08/18 11:41:58;;;;;;;11.13;5.10;;;;;;;34.78;25.38;98132.59;4441242;32;20090;-84
2022/08/18 11:44:27;;;;;;;10.13;4.80;;;;;;;34.85;25.49;98127.75;4439902;32;20467;-85
2022/08/18 11:46:58;;;;;;;12.73;5.10;;;;;;;34.75;25.45;98131.22;4440838;32;20197;-84
2022/08/18 11:49:32;;;;;;;10.07;5.00;;;;;;;34.61;25.80;98121.72;4439641;32;20100;-85
2022/08/18 11:52:22;;;;;;;10.50;4.80;;;;;;;34.81;25.82;98123.88;4426081;32;20137;-85
2022/08/18 11:54:49;;;;;;;10.38;4.53;;;;;;;34.80;25.85;98109.34;4439941;32;20105;-85
2022/08/18 11:57:38;;;;;;;11.93;5.12;;;;;;;34.73;25.93;98111.50;4439885;32;20146;-84
2022/08/18 12:00:38;;;;;;;12.95;5.60;;;;;;;34.88;25.91;98127.22;4446493;32;20410;-84
2022/08/18 12:03:35;;;;;;;13.30;5.20;;;;;;;34.72;25.88;98109.00;4456121;32;20159;-84
2022/08/18 12:06:25;;;;;;;10.60;4.70;;;;;;;34.85;25.91;98106.69;4442122;32;20084;-84
2022/08/18 12:09:02;;;;;;;10.25;5.28;;;;;;;34.61;25.86;98102.56;4442361;32;20089;-85
2022/08/18 12:11:32;;;;;;;12.73;5.20;;;;;;;34.79;25.40;98102.25;4442501;32;20088;-84
2022/08/18 12:14:04;;;;;;;12.45;5.15;;;;;;;34.90;25.24;98094.13;4442164;32;20109;-84
2022/08/18 12:16:41;;;;;;;13.00;5.00;;;;;;;35.09;24.95;98094.59;4442244;32;20604;-84